Terminal Aerodrome Forecast
Issued by NWS San Angelo, TX

Home | Current Version | Previous Version | Text Only | Print | Product List | Glossary On
Versions: 1 2 3 4 5 6 7 8 9 10 11 12 13 14 15 16
072
FTUS44 KSJT 141727
TAFSJT
TAF
KSJT 141727Z 1418/1518 25011KT P6SM BKN250
     FM142200 34009KT P6SM SCT250
     FM150300 34005KT P6SM SCT250=

USA.gov is the U.S. government's official web portal to all federal, state and local government web resources and services.